createdAt,value
2023-05-15T00:00:47.725Z,0.57
2023-05-15T00:01:47.784Z,0.58
2023-05-15T00:02:47.875Z,0.58
2023-05-15T00:03:47.888Z,0.56
2023-05-15T00:04:47.909Z,0.57
2023-05-15T00:05:47.887Z,0.56
2023-05-15T00:06:47.946Z,0.56
2023-05-15T00:07:47.968Z,0.57
2023-05-15T00:08:48.023Z,0.56
2023-05-15T00:09:48.118Z,0.56
2023-05-15T00:11:00.783Z,0.57
2023-05-15T00:11:48.196Z,0.57
2023-05-15T00:12:48.209Z,0.57
2023-05-15T00:13:48.201Z,0.57
2023-05-15T00:14:48.207Z,0.57
2023-05-15T00:15:48.223Z,0.57
2023-05-15T00:16:48.200Z,0.56
2023-05-15T00:17:48.274Z,0.56
2023-05-15T00:18:48.303Z,0.57
2023-05-15T00:19:48.231Z,0.56
2023-05-15T00:20:48.328Z,0.57
2023-05-15T00:21:48.377Z,0.57
2023-05-15T00:22:48.443Z,0.56
2023-05-15T00:23:48.527Z,0.57
2023-05-15T00:24:48.581Z,0.58
2023-05-15T00:25:48.687Z,0.56
2023-05-15T00:26:48.741Z,0.56
2023-05-15T00:27:48.744Z,0.57
2023-05-15T00:28:48.752Z,0.57
2023-05-15T00:29:48.763Z,0.57
2023-05-15T00:30:48.783Z,0.57
2023-05-15T00:31:48.966Z,0.59
2023-05-15T00:32:48.833Z,0.56
2023-05-15T00:33:48.791Z,0.56
2023-05-15T00:34:48.814Z,0.57
2023-05-15T00:35:48.840Z,0.57
2023-05-15T00:36:48.905Z,0.56
2023-05-15T00:37:48.955Z,0.56
2023-05-15T00:38:48.980Z,0.57
2023-05-15T00:39:49.136Z,0.58
2023-05-15T00:40:49.060Z,0.57
2023-05-15T00:41:49.118Z,0.57
2023-05-15T00:42:49.150Z,0.59
2023-05-15T00:43:49.197Z,0.57
2023-05-15T00:44:49.231Z,0.56
2023-05-15T00:45:49.249Z,0.57
2023-05-15T00:46:49.304Z,0.57
2023-05-15T00:47:49.324Z,0.56
2023-05-15T00:48:49.334Z,0.57
2023-05-15T00:49:49.402Z,0.56
2023-05-15T00:50:49.452Z,0.57
2023-05-15T00:51:49.459Z,0.56
2023-05-15T00:52:49.483Z,0.56
2023-05-15T00:53:49.499Z,0.57
2023-05-15T00:54:49.542Z,0.58
2023-05-15T00:55:49.552Z,0.56
2023-05-15T00:56:49.588Z,0.57
2023-05-15T00:57:49.631Z,0.57
2023-05-15T00:58:49.670Z,0.57
2023-05-15T00:59:49.723Z,0.57
2023-05-15T01:00:49.767Z,0.57
2023-05-15T01:01:49.756Z,0.58
2023-05-15T01:02:49.884Z,0.57
2023-05-15T01:03:49.858Z,0.56
2023-05-15T01:04:49.886Z,0.57
2023-05-15T01:05:49.923Z,0.57
2023-05-15T01:06:49.945Z,0.58
2023-05-15T01:07:49.992Z,0.57
2023-05-15T01:08:50.042Z,0.56
2023-05-15T01:09:50.092Z,0.58
2023-05-15T01:10:50.106Z,0.57
2023-05-15T01:11:50.198Z,0.57
2023-05-15T01:12:50.257Z,0.57
2023-05-15T01:13:50.350Z,0.56
2023-05-15T01:14:50.428Z,0.57
2023-05-15T01:15:50.515Z,0.56
2023-05-15T01:16:50.600Z,0.59
2023-05-15T01:17:50.677Z,0.57
2023-05-15T01:18:50.762Z,0.55
2023-05-15T01:19:51.098Z,0.57
2023-05-15T01:20:50.815Z,0.57
2023-05-15T01:21:50.839Z,0.57
2023-05-15T01:22:50.888Z,0.57
2023-05-15T01:23:50.923Z,0.57
2023-05-15T01:24:50.973Z,0.57
2023-05-15T01:25:51.000Z,0.58
2023-05-15T01:26:51.027Z,0.56
2023-05-15T01:27:51.074Z,0.56
2023-05-15T01:28:51.054Z,0.57
2023-05-15T01:29:51.073Z,0.57
2023-05-15T01:30:51.124Z,0.58
2023-05-15T01:31:51.173Z,0.56
2023-05-15T01:32:51.258Z,0.57
2023-05-15T01:33:51.222Z,0.56
2023-05-15T01:34:51.305Z,0.57
2023-05-15T01:35:51.336Z,0.56
2023-05-15T01:36:51.378Z,0.58
2023-05-15T01:37:51.402Z,0.56
2023-05-15T01:38:51.446Z,0.58
2023-05-15T01:39:51.494Z,0.57
2023-05-15T01:40:51.518Z,0.58
2023-05-15T01:41:51.561Z,0.56
2023-05-15T01:42:51.572Z,0.56
2023-05-15T01:43:51.590Z,0.57
2023-05-15T01:44:51.604Z,0.58
2023-05-15T01:45:51.759Z,0.57
2023-05-15T01:46:51.781Z,0.58
2023-05-15T01:47:51.759Z,0.56
2023-05-15T01:48:51.724Z,0.58
2023-05-15T01:49:51.726Z,0.58
2023-05-15T01:50:51.780Z,0.57
2023-05-15T01:51:51.768Z,0.58
2023-05-15T01:52:51.782Z,0.57
2023-05-15T01:53:51.765Z,0.58
2023-05-15T01:54:51.795Z,0.58
2023-05-15T01:55:51.771Z,0.56
2023-05-15T01:56:51.801Z,0.56
2023-05-15T01:57:51.830Z,0.58
2023-05-15T01:58:51.848Z,0.57
2023-05-15T01:59:51.885Z,0.56
2023-05-15T02:00:51.939Z,0.56
2023-05-15T02:01:51.938Z,0.56
2023-05-15T02:02:51.990Z,0.56
2023-05-15T02:03:52.000Z,0.56
2023-05-15T02:04:51.933Z,0.57
2023-05-15T02:05:51.935Z,0.56
2023-05-15T02:06:51.965Z,0.56
2023-05-15T02:07:51.951Z,0.58
2023-05-15T02:08:51.962Z,0.56
2023-05-15T02:09:51.948Z,0.56
2023-05-15T02:10:51.969Z,0.57
2023-05-15T02:11:51.955Z,0.55
2023-05-15T02:12:51.958Z,0.57
2023-05-15T02:13:51.971Z,0.56
2023-05-15T02:14:51.963Z,0.56
2023-05-15T02:15:51.995Z,0.56
2023-05-15T02:16:51.968Z,0.56
2023-05-15T02:17:51.994Z,0.56
2023-05-15T02:18:51.999Z,0.57
2023-05-15T02:19:51.992Z,0.57
2023-05-15T02:20:52.006Z,0.55
2023-05-15T02:21:51.974Z,0.56
2023-05-15T02:22:51.979Z,0.58
2023-05-15T02:23:52.002Z,0.58
2023-05-15T02:24:51.991Z,0.58
2023-05-15T02:25:51.998Z,0.58
2023-05-15T02:26:52.016Z,0.58
2023-05-15T02:27:52.013Z,0.58
2023-05-15T02:28:52.023Z,0.58
2023-05-15T02:29:52.025Z,0.57
2023-05-15T02:30:52.020Z,0.58
2023-05-15T02:31:52.047Z,0.58
2023-05-15T02:32:52.070Z,0.58
2023-05-15T02:33:52.053Z,0.58
2023-05-15T02:34:52.031Z,0.59
2023-05-15T02:35:52.019Z,0.57
2023-05-15T02:36:52.033Z,0.57
2023-05-15T02:37:52.027Z,0.57
2023-05-15T02:38:52.020Z,0.57
2023-05-15T02:39:52.013Z,0.55
2023-05-15T02:40:52.027Z,0.58
2023-05-15T02:41:52.027Z,0.57
2023-05-15T02:42:52.034Z,0.56
2023-05-15T02:43:52.012Z,0.57
2023-05-15T02:44:52.026Z,0.57
2023-05-15T02:45:52.037Z,0.56
2023-05-15T02:46:52.026Z,0.56
2023-05-15T02:47:52.072Z,0.57
2023-05-15T02:48:52.014Z,0.53
2023-05-15T02:49:52.013Z,0.50
2023-05-15T02:50:52.033Z,0.50
2023-05-15T02:51:52.032Z,0.50
2023-05-15T02:52:52.074Z,0.50
2023-05-15T02:53:52.052Z,0.50
2023-05-15T02:54:52.051Z,0.50
2023-05-15T02:55:52.065Z,0.50
2023-05-15T02:56:52.072Z,0.50
2023-05-15T02:57:52.059Z,0.50
2023-05-15T02:58:52.079Z,0.50
2023-05-15T02:59:52.146Z,0.50
2023-05-15T03:00:52.181Z,0.50
2023-05-15T03:01:52.210Z,0.50
2023-05-15T03:02:52.288Z,0.50
2023-05-15T03:03:52.333Z,0.50
2023-05-15T03:04:52.333Z,0.50
2023-05-15T03:05:52.468Z,0.50
2023-05-15T03:06:52.444Z,0.51
2023-05-15T03:07:52.468Z,0.50
2023-05-15T03:08:52.509Z,0.51
2023-05-15T03:09:52.559Z,0.51
2023-05-15T03:10:52.627Z,0.52
2023-05-15T03:11:52.677Z,0.50
2023-05-15T03:12:52.731Z,0.50
2023-05-15T03:13:52.780Z,0.50
2023-05-15T03:14:52.845Z,0.51
2023-05-15T03:15:52.901Z,0.51
2023-05-15T03:16:53.018Z,0.51
2023-05-15T03:17:53.068Z,0.51
2023-05-15T03:18:53.122Z,0.51
2023-05-15T03:19:53.262Z,0.51
2023-05-15T03:20:53.218Z,0.50
2023-05-15T03:21:53.300Z,0.51
2023-05-15T03:22:53.380Z,0.51
2023-05-15T03:23:53.424Z,0.51
2023-05-15T03:24:53.492Z,0.51
2023-05-15T03:25:53.539Z,0.52
2023-05-15T03:26:53.615Z,0.52
2023-05-15T03:27:53.696Z,0.52
2023-05-15T03:28:53.791Z,0.53
2023-05-15T03:29:53.822Z,0.51
2023-05-15T03:30:53.918Z,0.51
2023-05-15T03:31:54.068Z,0.51
2023-05-15T03:32:54.128Z,0.51
2023-05-15T03:33:54.146Z,0.51
2023-05-15T03:34:54.222Z,0.51
2023-05-15T03:35:54.293Z,0.50
2023-05-15T03:36:54.388Z,0.50
2023-05-15T03:37:54.450Z,0.50
2023-05-15T03:38:54.526Z,0.50
2023-05-15T03:39:54.606Z,0.50
2023-05-15T03:40:54.691Z,0.51
2023-05-15T03:41:54.767Z,0.51
2023-05-15T03:42:54.846Z,0.51
2023-05-15T03:43:54.906Z,0.50
2023-05-15T03:44:54.986Z,0.50
2023-05-15T03:45:55.054Z,0.51
2023-05-15T03:46:55.264Z,0.50
2023-05-15T03:47:55.239Z,0.50
2023-05-15T03:48:55.276Z,0.51
2023-05-15T03:49:55.360Z,0.51
2023-05-15T03:50:55.438Z,0.52
2023-05-15T03:51:55.458Z,0.52
2023-05-15T03:52:55.478Z,0.52
2023-05-15T03:53:55.503Z,0.52
2023-05-15T03:54:55.552Z,0.52
2023-05-15T03:55:55.561Z,0.52
2023-05-15T03:56:55.680Z,0.52
2023-05-15T03:57:55.617Z,0.52
2023-05-15T03:58:55.657Z,0.52
2023-05-15T03:59:55.674Z,0.51
2023-05-15T04:00:55.713Z,0.50
2023-05-15T04:02:03.478Z,0.50
2023-05-15T04:02:56.846Z,0.50
2023-05-15T04:03:55.784Z,0.48
2023-05-15T04:04:55.901Z,0.48
2023-05-15T04:05:55.867Z,0.47
2023-05-15T04:06:55.869Z,0.46
2023-05-15T04:07:55.892Z,0.50
2023-05-15T04:08:55.918Z,0.51
2023-05-15T04:09:55.948Z,0.51
2023-05-15T04:10:55.966Z,0.50
2023-05-15T04:11:56.044Z,0.50
2023-05-15T04:12:56.135Z,0.50
2023-05-15T04:13:56.227Z,0.51
2023-05-15T04:14:56.354Z,0.51
2023-05-15T04:15:56.494Z,0.51
2023-05-15T04:16:56.517Z,0.52
2023-05-15T04:17:56.648Z,0.52
2023-05-15T04:18:56.753Z,0.52
2023-05-15T04:19:56.781Z,0.53
2023-05-15T04:20:56.867Z,0.54
2023-05-15T04:21:56.991Z,0.55
2023-05-15T04:22:57.057Z,0.55
2023-05-15T04:23:57.146Z,0.57
2023-05-15T04:24:57.230Z,0.57
2023-05-15T04:25:57.331Z,0.56
2023-05-15T04:26:57.499Z,0.57
2023-05-15T04:27:57.546Z,0.57
2023-05-15T04:29:58.650Z,0.57
2023-05-15T04:30:57.665Z,0.57
2023-05-15T04:31:57.739Z,0.58
2023-05-15T04:32:57.727Z,0.57
2023-05-15T04:33:57.776Z,0.57
2023-05-15T04:34:57.820Z,0.58
2023-05-15T04:35:57.818Z,0.58
2023-05-15T04:36:57.848Z,0.58
2023-05-15T04:37:57.882Z,0.57
2023-05-15T04:38:57.907Z,0.57
2023-05-15T04:39:57.919Z,0.56
2023-05-15T04:40:58.002Z,0.56
2023-05-15T04:41:58.056Z,0.57
2023-05-15T04:42:58.074Z,0.56
2023-05-15T04:43:58.139Z,0.56
2023-05-15T04:44:58.197Z,0.56
2023-05-15T04:45:58.261Z,0.56
2023-05-15T04:46:58.249Z,0.56
2023-05-15T04:47:58.301Z,0.55
2023-05-15T04:48:58.329Z,0.56
2023-05-15T04:49:58.348Z,0.55
2023-05-15T04:50:58.376Z,0.55
2023-05-15T04:51:58.431Z,0.54
2023-05-15T04:52:58.442Z,0.54
2023-05-15T04:53:58.477Z,0.55
2023-05-15T04:54:58.515Z,0.55
2023-05-15T04:55:58.529Z,0.56
2023-05-15T04:56:58.561Z,0.56
2023-05-15T04:57:58.590Z,0.59
2023-05-15T04:58:58.613Z,0.59
2023-05-15T04:59:58.647Z,0.59
2023-05-15T05:00:58.675Z,0.60
2023-05-15T05:01:58.845Z,0.62
2023-05-15T05:02:58.804Z,0.63
2023-05-15T05:03:58.843Z,0.63
2023-05-15T05:04:58.804Z,0.67
2023-05-15T05:05:58.825Z,0.69
2023-05-15T05:06:58.867Z,0.78
2023-05-15T05:07:58.882Z,0.90
2023-05-15T05:08:58.905Z,0.97
2023-05-15T05:09:58.942Z,1.00
2023-05-15T05:10:58.969Z,1.00
2023-05-15T05:11:58.989Z,1.02
2023-05-15T05:12:59.012Z,1.01
2023-05-15T05:13:59.037Z,1.03
2023-05-15T05:14:59.051Z,1.09
2023-05-15T05:15:59.126Z,1.17
2023-05-15T05:16:59.100Z,1.30
2023-05-15T05:17:59.149Z,1.37
2023-05-15T05:18:59.176Z,1.40
2023-05-15T05:19:59.192Z,1.38
2023-05-15T05:20:59.182Z,1.41
2023-05-15T05:21:59.221Z,1.46
2023-05-15T05:22:59.239Z,1.48
2023-05-15T05:23:59.266Z,1.48
2023-05-15T05:24:59.271Z,1.50
2023-05-15T05:25:59.332Z,1.52
2023-05-15T05:26:59.318Z,1.55
2023-05-15T05:27:59.327Z,1.49
2023-05-15T05:28:59.361Z,1.51
2023-05-15T05:29:59.374Z,1.55
2023-05-15T05:30:59.450Z,1.65
2023-05-15T05:31:59.473Z,1.74
2023-05-15T05:32:59.461Z,1.87
2023-05-15T05:33:59.438Z,1.98
2023-05-15T05:34:59.441Z,2.05
2023-05-15T05:35:59.461Z,2.16
2023-05-15T05:36:59.487Z,2.38
2023-05-15T05:37:59.511Z,2.62
2023-05-15T05:38:59.524Z,2.78
2023-05-15T05:39:59.566Z,3.03
2023-05-15T05:40:59.545Z,3.03
2023-05-15T05:41:59.601Z,3.07
2023-05-15T05:42:59.574Z,3.19
2023-05-15T05:43:59.599Z,3.40
2023-05-15T05:44:59.635Z,3.27
2023-05-15T05:45:59.613Z,3.44
2023-05-15T05:46:59.715Z,3.50
2023-05-15T05:47:59.671Z,3.51
2023-05-15T05:48:59.680Z,3.55
2023-05-15T05:49:59.676Z,3.33
2023-05-15T05:50:59.681Z,3.14
2023-05-15T05:51:59.692Z,2.95
2023-05-15T05:52:59.695Z,3.42
2023-05-15T05:53:59.727Z,3.59
2023-05-15T05:54:59.751Z,3.77
2023-05-15T05:55:59.889Z,3.76
2023-05-15T05:56:59.759Z,3.97
2023-05-15T05:57:59.769Z,3.98
2023-05-15T05:58:59.786Z,4.05
2023-05-15T05:59:59.773Z,4.15
2023-05-15T06:00:59.851Z,4.31
2023-05-15T06:01:59.833Z,5.13
2023-05-15T06:02:59.963Z,5.08
2023-05-15T06:04:00.112Z,5.26
2023-05-15T06:04:59.858Z,5.44
2023-05-15T06:05:59.873Z,5.34
2023-05-15T06:06:59.964Z,5.54
2023-05-15T06:07:59.996Z,6.01
2023-05-15T06:09:00.133Z,5.59
2023-05-15T06:10:00.130Z,5.23
2023-05-15T06:11:00.236Z,5.23
2023-05-15T06:12:00.300Z,4.80
2023-05-15T06:13:00.321Z,4.76
2023-05-15T06:14:00.376Z,4.73
2023-05-15T06:15:00.436Z,4.93
2023-05-15T06:16:00.491Z,5.11
2023-05-15T06:17:00.563Z,5.25
2023-05-15T06:18:00.612Z,5.59
2023-05-15T06:19:00.609Z,5.65
2023-05-15T06:20:00.654Z,5.49
2023-05-15T06:21:00.702Z,5.49
2023-05-15T06:22:00.738Z,5.73
2023-05-15T06:23:00.841Z,6.07
2023-05-15T06:24:00.856Z,6.28
2023-05-15T06:25:00.859Z,6.14
2023-05-15T06:26:00.900Z,6.21
2023-05-15T06:27:00.939Z,6.41
2023-05-15T06:28:01.030Z,6.44
2023-05-15T06:29:01.002Z,6.49
2023-05-15T06:30:01.036Z,6.60
2023-05-15T06:31:01.136Z,6.92
2023-05-15T06:32:01.251Z,7.30
2023-05-15T06:33:01.154Z,7.76
2023-05-15T06:34:01.187Z,7.82
2023-05-15T06:35:01.235Z,7.67
2023-05-15T06:36:01.241Z,8.03
2023-05-15T06:37:01.240Z,8.05
2023-05-15T06:38:01.245Z,8.07
2023-05-15T06:39:01.217Z,8.17
2023-05-15T06:40:01.266Z,8.40
2023-05-15T06:41:01.203Z,8.97
2023-05-15T06:42:01.210Z,9.66
2023-05-15T06:43:01.208Z,9.36
2023-05-15T06:44:01.211Z,9.43
2023-05-15T06:45:01.271Z,9.80
2023-05-15T06:46:01.311Z,9.77
2023-05-15T06:47:01.303Z,9.49
2023-05-15T06:48:02.108Z,10.00
2023-05-15T06:49:01.196Z,10.46
2023-05-15T06:50:01.186Z,11.09
2023-05-15T06:51:01.167Z,11.55
2023-05-15T06:52:01.173Z,12.12
2023-05-15T06:53:01.188Z,12.30
2023-05-15T06:54:01.166Z,12.36
2023-05-15T06:55:01.158Z,12.83
2023-05-15T06:56:01.129Z,13.02
2023-05-15T06:57:01.137Z,13.29
2023-05-15T06:58:01.115Z,13.69
2023-05-15T06:59:01.134Z,13.73
2023-05-15T07:00:01.084Z,13.63
2023-05-15T07:01:01.420Z,13.16
2023-05-15T07:02:01.152Z,12.72
2023-05-15T07:03:01.263Z,10.69
2023-05-15T07:04:01.191Z,6.69
2023-05-15T07:05:01.308Z,4.79
2023-05-15T07:06:01.262Z,3.96
2023-05-15T07:07:01.328Z,2.62
2023-05-15T07:08:01.361Z,1.70
2023-05-15T07:09:01.321Z,1.48
2023-05-15T07:10:01.306Z,1.08
2023-05-15T07:11:01.298Z,0.82
2023-05-15T07:12:01.296Z,0.75
2023-05-15T07:13:01.306Z,0.56
2023-05-15T07:14:01.291Z,0.50
2023-05-15T07:15:01.321Z,0.49
2023-05-15T07:16:01.322Z,0.54
2023-05-15T07:17:01.420Z,0.57
2023-05-15T07:18:01.675Z,0.62
2023-05-15T07:19:01.586Z,0.62
2023-05-15T07:20:01.580Z,0.63
2023-05-15T07:21:01.482Z,0.67
2023-05-15T07:22:03.313Z,0.78
2023-05-15T07:23:01.472Z,0.95
2023-05-15T07:24:01.535Z,1.03
2023-05-15T07:25:01.482Z,1.08
2023-05-15T07:26:01.542Z,1.26
2023-05-15T07:27:01.516Z,1.36
2023-05-15T07:28:01.572Z,1.45
2023-05-15T07:29:01.632Z,1.63
2023-05-15T07:30:01.700Z,1.72
2023-05-15T07:31:03.109Z,1.77
2023-05-15T07:32:01.920Z,1.63
2023-05-15T07:33:01.896Z,1.46
2023-05-15T07:34:01.963Z,1.41
2023-05-15T07:35:01.959Z,1.23
2023-05-15T07:36:02.446Z,1.14
2023-05-15T07:37:02.111Z,1.07
2023-05-15T07:38:02.246Z,1.01
2023-05-15T07:39:02.195Z,0.86
2023-05-15T07:40:02.337Z,0.77
2023-05-15T07:41:02.291Z,0.70
2023-05-15T07:42:02.421Z,0.62
2023-05-15T07:43:02.353Z,0.61
2023-05-15T07:44:02.437Z,0.61
2023-05-15T07:45:02.395Z,0.59
2023-05-15T07:46:02.432Z,0.52
2023-05-15T07:47:02.375Z,0.52
2023-05-15T07:48:02.410Z,0.50
2023-05-15T07:49:02.503Z,0.50
2023-05-15T07:50:02.365Z,0.50
2023-05-15T07:51:02.371Z,0.51
2023-05-15T07:52:02.444Z,0.51
2023-05-15T07:53:02.453Z,0.53
2023-05-15T07:54:02.369Z,0.52
2023-05-15T07:55:02.377Z,0.50
2023-05-15T07:56:02.370Z,0.50
2023-05-15T07:57:02.394Z,0.51
2023-05-15T07:58:02.397Z,0.52
2023-05-15T07:59:02.509Z,0.52
2023-05-15T08:00:02.420Z,0.51
2023-05-15T08:01:02.408Z,0.54
2023-05-15T08:02:02.560Z,0.56
2023-05-15T08:03:02.533Z,0.54
2023-05-15T08:04:02.496Z,0.57
2023-05-15T08:05:02.423Z,0.59
2023-05-15T08:06:02.540Z,0.53
2023-05-15T08:07:02.427Z,0.52
2023-05-15T08:08:02.447Z,0.52
2023-05-15T08:09:02.443Z,0.50
2023-05-15T08:10:02.449Z,0.53
2023-05-15T08:11:02.465Z,0.54
2023-05-15T08:12:02.459Z,0.54
2023-05-15T08:13:02.555Z,0.57
2023-05-15T08:14:02.529Z,0.56
2023-05-15T08:15:02.471Z,0.50
2023-05-15T08:16:02.553Z,0.50
2023-05-15T08:17:02.491Z,0.51
2023-05-15T08:18:02.566Z,0.59
2023-05-15T08:19:02.556Z,0.65
2023-05-15T08:20:02.538Z,0.72
2023-05-15T08:21:04.082Z,0.82
2023-05-15T08:22:02.529Z,0.88
2023-05-15T08:23:02.507Z,0.89
2023-05-15T08:24:02.604Z,0.90
2023-05-15T08:25:02.514Z,0.94
2023-05-15T08:26:02.504Z,1.03
2023-05-15T08:27:02.542Z,1.32
2023-05-15T08:28:02.523Z,1.32
2023-05-15T08:29:02.564Z,1.43
2023-05-15T08:30:02.548Z,1.33
2023-05-15T08:31:02.567Z,1.48
2023-05-15T08:32:02.514Z,1.64
2023-05-15T08:33:02.638Z,1.49
2023-05-15T08:34:02.693Z,1.47
2023-05-15T08:35:02.649Z,1.61
2023-05-15T08:36:02.740Z,1.85
2023-05-15T08:37:02.767Z,2.14
2023-05-15T08:38:02.889Z,1.91
2023-05-15T08:39:02.911Z,2.33
2023-05-15T08:40:03.081Z,2.39
2023-05-15T08:41:03.130Z,2.50
2023-05-15T08:42:03.167Z,2.01
2023-05-15T08:43:03.168Z,2.33
2023-05-15T08:44:03.240Z,2.59
2023-05-15T08:45:03.277Z,2.75
2023-05-15T08:46:03.328Z,2.97
2023-05-15T08:47:03.475Z,3.17
2023-05-15T08:48:03.458Z,3.17
2023-05-15T08:49:03.507Z,3.14
2023-05-15T08:50:03.397Z,3.21
2023-05-15T08:51:03.404Z,3.34
2023-05-15T08:52:03.385Z,3.44
2023-05-15T08:53:03.412Z,3.44
2023-05-15T08:54:03.370Z,3.34
2023-05-15T08:55:03.409Z,2.27
2023-05-15T08:56:03.395Z,1.45
2023-05-15T08:57:03.396Z,1.04
2023-05-15T08:58:03.403Z,1.14
2023-05-15T08:59:03.402Z,1.31
2023-05-15T09:00:03.399Z,1.46
2023-05-15T09:01:03.425Z,1.53
2023-05-15T09:02:03.534Z,1.70
2023-05-15T09:03:03.491Z,1.87
2023-05-15T09:04:03.472Z,2.12
2023-05-15T09:05:03.408Z,2.12
2023-05-15T09:06:03.394Z,2.15
2023-05-15T09:07:03.421Z,2.24
2023-05-15T09:08:03.413Z,2.42
2023-05-15T09:09:03.461Z,2.73
2023-05-15T09:10:03.371Z,2.87
2023-05-15T09:11:03.384Z,2.90
2023-05-15T09:12:03.399Z,3.01
2023-05-15T09:13:03.393Z,3.11
2023-05-15T09:14:03.376Z,3.12
2023-05-15T09:15:03.387Z,3.17
2023-05-15T09:16:03.374Z,3.22
2023-05-15T09:17:03.405Z,3.10
2023-05-15T09:18:03.377Z,2.42
2023-05-15T09:19:03.438Z,2.00
2023-05-15T09:20:03.324Z,1.92
2023-05-15T09:21:03.330Z,1.59
2023-05-15T09:22:03.313Z,1.41
2023-05-15T09:23:03.311Z,1.36
2023-05-15T09:24:03.333Z,1.25
2023-05-15T09:25:03.302Z,1.23
2023-05-15T09:26:03.315Z,1.12
2023-05-15T09:27:03.318Z,0.93
2023-05-15T09:28:03.296Z,0.98
2023-05-15T09:29:03.289Z,0.99
2023-05-15T09:30:03.275Z,0.94
2023-05-15T09:31:03.417Z,0.97
2023-05-15T09:32:03.479Z,0.91
2023-05-15T09:33:03.637Z,0.99
2023-05-15T09:34:03.509Z,0.86
2023-05-15T09:35:03.503Z,0.82
2023-05-15T09:36:03.497Z,0.87
2023-05-15T09:37:03.504Z,0.85
2023-05-15T09:38:03.476Z,0.88
2023-05-15T09:39:03.498Z,0.88
2023-05-15T09:40:03.486Z,0.81
2023-05-15T09:41:03.479Z,0.93
2023-05-15T09:42:03.501Z,0.91
2023-05-15T09:43:03.514Z,1.02
2023-05-15T09:44:03.621Z,0.92
2023-05-15T09:45:03.678Z,0.86
2023-05-15T09:46:03.884Z,0.80
2023-05-15T09:47:03.972Z,0.65
2023-05-15T09:48:03.949Z,0.68
2023-05-15T09:49:03.897Z,0.71
2023-05-15T09:50:03.968Z,0.76
2023-05-15T09:51:03.981Z,0.77
2023-05-15T09:52:04.011Z,0.82
2023-05-15T09:53:04.149Z,0.79
2023-05-15T09:54:04.147Z,0.83
2023-05-15T09:55:04.256Z,0.85
2023-05-15T09:56:04.405Z,0.86
2023-05-15T09:57:04.374Z,0.90
2023-05-15T09:58:04.415Z,0.87
2023-05-15T09:59:04.447Z,0.83
2023-05-15T10:00:04.455Z,0.81
2023-05-15T10:01:04.561Z,0.88
2023-05-15T10:02:04.476Z,0.85
2023-05-15T10:03:04.553Z,0.83
2023-05-15T10:04:04.463Z,0.85
2023-05-15T10:05:04.538Z,0.72
2023-05-15T10:06:04.513Z,0.70
2023-05-15T10:07:04.459Z,0.79
2023-05-15T10:08:04.482Z,0.77
2023-05-15T10:09:04.467Z,0.71
2023-05-15T10:10:04.466Z,0.65
2023-05-15T10:11:04.524Z,0.76
2023-05-15T10:12:04.592Z,0.84
2023-05-15T10:13:04.714Z,0.94
2023-05-15T10:14:04.749Z,0.98
2023-05-15T10:15:04.778Z,1.01
2023-05-15T10:16:04.948Z,1.03
2023-05-15T10:17:04.962Z,1.10
2023-05-15T10:18:05.190Z,1.12
2023-05-15T10:19:05.292Z,1.07
2023-05-15T10:20:05.090Z,1.12
2023-05-15T10:21:05.148Z,1.21
2023-05-15T10:22:05.168Z,1.24
2023-05-15T10:23:05.273Z,1.31
2023-05-15T10:24:05.297Z,1.45
2023-05-15T10:25:05.311Z,1.37
2023-05-15T10:26:05.360Z,1.40
2023-05-15T10:27:05.417Z,1.37
2023-05-15T10:28:05.438Z,1.38
2023-05-15T10:29:05.486Z,1.38
2023-05-15T10:30:05.480Z,1.42
2023-05-15T10:31:05.516Z,1.42
2023-05-15T10:32:05.473Z,1.43
2023-05-15T10:33:05.582Z,1.46
2023-05-15T10:34:05.478Z,1.57
2023-05-15T10:35:05.443Z,1.43
2023-05-15T10:36:05.426Z,1.46
2023-05-15T10:37:05.419Z,1.49
2023-05-15T10:38:05.430Z,1.62
2023-05-15T10:39:05.379Z,1.59
2023-05-15T10:40:05.463Z,1.34
2023-05-15T10:41:16.548Z,1.26
2023-05-15T10:42:06.400Z,1.26
2023-05-15T10:43:05.368Z,1.26
2023-05-15T10:44:05.347Z,1.28
2023-05-15T10:45:05.437Z,1.33
2023-05-15T10:46:05.310Z,1.43
2023-05-15T10:47:05.371Z,1.46
2023-05-15T10:48:05.309Z,1.27
2023-05-15T10:49:05.332Z,1.29
2023-05-15T10:50:05.269Z,1.32
2023-05-15T10:51:05.316Z,1.34
2023-05-15T10:52:05.222Z,1.34
2023-05-15T10:53:05.219Z,1.45
2023-05-15T10:54:05.261Z,1.63
2023-05-15T10:55:05.201Z,1.75
2023-05-15T10:56:05.226Z,1.59
2023-05-15T10:57:05.160Z,1.57
2023-05-15T10:58:05.158Z,1.53
2023-05-15T10:59:05.161Z,1.55
2023-05-15T11:00:05.097Z,1.55
2023-05-15T11:01:05.116Z,1.56
2023-05-15T11:02:05.070Z,1.61
2023-05-15T11:03:05.119Z,1.72
2023-05-15T11:04:05.121Z,1.93
2023-05-15T11:05:05.017Z,2.00
2023-05-15T11:06:05.010Z,2.04
2023-05-15T11:07:05.009Z,2.20
2023-05-15T11:08:04.968Z,2.29
2023-05-15T11:09:04.970Z,2.40
2023-05-15T11:10:06.190Z,2.53
2023-05-15T11:11:04.927Z,2.65
2023-05-15T11:12:04.949Z,2.68
2023-05-15T11:13:04.910Z,2.83
2023-05-15T11:14:04.908Z,2.99
2023-05-15T11:15:04.854Z,3.15
2023-05-15T11:16:04.867Z,2.86
2023-05-15T11:17:04.941Z,3.00
2023-05-15T11:18:04.885Z,3.12
2023-05-15T11:19:04.942Z,3.33
2023-05-15T11:20:04.833Z,3.44
2023-05-15T11:21:04.779Z,3.75
2023-05-15T11:22:04.865Z,4.12
2023-05-15T11:23:04.795Z,4.58
2023-05-15T11:24:04.797Z,4.70
2023-05-15T11:25:04.786Z,5.08
2023-05-15T11:26:04.884Z,5.49
2023-05-15T11:27:04.795Z,6.16
2023-05-15T11:28:04.787Z,6.88
2023-05-15T11:29:04.796Z,7.31
2023-05-15T11:30:04.799Z,7.61
2023-05-15T11:31:04.809Z,7.97
2023-05-15T11:32:04.774Z,8.10
2023-05-15T11:33:04.819Z,8.39
2023-05-15T11:34:04.775Z,8.63
2023-05-15T11:35:04.776Z,8.94
2023-05-15T11:36:04.768Z,9.13
2023-05-15T11:37:04.808Z,9.37
2023-05-15T11:38:04.782Z,9.59
2023-05-15T11:39:04.789Z,9.62
2023-05-15T11:40:04.796Z,9.77
2023-05-15T11:41:04.823Z,10.04
2023-05-15T11:42:04.782Z,9.71
2023-05-15T11:43:04.779Z,9.93
2023-05-15T11:44:04.788Z,10.26
2023-05-15T11:45:04.798Z,12.20
2023-05-15T11:46:04.894Z,13.01
2023-05-15T11:47:04.914Z,13.01
2023-05-15T11:48:04.918Z,13.00
2023-05-15T11:49:04.803Z,12.27
2023-05-15T11:50:04.831Z,12.21
2023-05-15T11:51:04.796Z,11.79
2023-05-15T11:52:04.840Z,11.59
2023-05-15T11:53:04.813Z,11.27
2023-05-15T11:54:06.324Z,11.47
2023-05-15T11:55:05.038Z,11.33
2023-05-15T11:56:05.021Z,11.18
2023-05-15T11:57:05.044Z,11.18
2023-05-15T11:58:05.038Z,11.08
2023-05-15T11:59:05.058Z,11.10
2023-05-15T12:00:05.034Z,10.81
2023-05-15T12:01:05.057Z,10.61
2023-05-15T12:02:05.047Z,10.83
2023-05-15T12:03:05.122Z,10.39
2023-05-15T12:04:05.197Z,10.55
2023-05-15T12:05:05.130Z,10.44
2023-05-15T12:06:05.084Z,10.34
2023-05-15T12:07:05.078Z,10.59
2023-05-15T12:08:05.087Z,10.76
2023-05-15T12:09:05.088Z,10.62
2023-05-15T12:10:05.097Z,10.84
2023-05-15T12:11:05.100Z,10.37
2023-05-15T12:12:05.108Z,10.53
2023-05-15T12:13:05.115Z,10.28
2023-05-15T12:14:05.091Z,10.16
2023-05-15T12:15:05.089Z,10.29
2023-05-15T12:16:05.147Z,9.98
2023-05-15T12:17:05.097Z,10.01
2023-05-15T12:18:05.039Z,10.34
2023-05-15T12:19:05.069Z,10.04
2023-05-15T12:20:04.969Z,9.90
2023-05-15T12:21:04.990Z,9.68
2023-05-15T12:22:05.002Z,9.72
2023-05-15T12:23:04.947Z,9.65
2023-05-15T12:24:08.218Z,9.38
2023-05-15T12:25:04.924Z,9.44
2023-05-15T12:26:04.897Z,9.53
2023-05-15T12:27:04.902Z,9.58
2023-05-15T12:28:04.875Z,9.42
2023-05-15T12:29:04.873Z,8.82
2023-05-15T12:30:04.937Z,8.80
2023-05-15T12:31:04.843Z,8.65
2023-05-15T12:32:04.823Z,8.72
2023-05-15T12:33:04.824Z,8.47
2023-05-15T12:34:04.784Z,8.14
2023-05-15T12:35:04.759Z,7.61
2023-05-15T12:36:04.769Z,7.56
2023-05-15T12:37:04.757Z,7.37
2023-05-15T12:38:04.715Z,7.38
2023-05-15T12:39:04.909Z,7.55
2023-05-15T12:40:04.697Z,7.86
2023-05-15T12:41:04.699Z,7.70
2023-05-15T12:42:04.671Z,7.76
2023-05-15T12:43:04.632Z,7.89
2023-05-15T12:44:04.625Z,7.85
2023-05-15T12:45:04.610Z,7.80
2023-05-15T12:46:04.595Z,7.69
2023-05-15T12:47:04.593Z,7.72
2023-05-15T12:48:04.663Z,7.55
2023-05-15T12:49:04.545Z,7.56
2023-05-15T12:50:04.522Z,7.47
2023-05-15T12:51:04.483Z,7.56
2023-05-15T12:52:04.485Z,7.57
2023-05-15T12:53:04.462Z,7.53
2023-05-15T12:54:04.483Z,7.37
2023-05-15T12:55:04.439Z,7.37
2023-05-15T12:56:04.425Z,7.21
2023-05-15T12:57:04.380Z,7.23
2023-05-15T12:58:04.392Z,6.81
2023-05-15T12:59:04.370Z,6.77
2023-05-15T13:00:04.342Z,6.60
2023-05-15T13:01:04.361Z,6.38
2023-05-15T13:02:04.316Z,6.52
2023-05-15T13:03:04.413Z,6.69
2023-05-15T13:04:04.312Z,6.57
2023-05-15T13:05:04.257Z,6.58
2023-05-15T13:06:04.236Z,6.60
2023-05-15T13:07:04.207Z,6.67
2023-05-15T13:08:04.180Z,6.71
2023-05-15T13:09:04.218Z,6.98
2023-05-15T13:10:04.154Z,7.06
2023-05-15T13:11:04.138Z,7.04
2023-05-15T13:12:04.097Z,7.16
2023-05-15T13:13:04.079Z,7.27
2023-05-15T13:14:04.084Z,7.24
2023-05-15T13:15:04.049Z,7.27
2023-05-15T13:16:04.029Z,7.47
2023-05-15T13:17:04.083Z,7.37
2023-05-15T13:18:04.027Z,7.34